Change the Weather History Date:

Wednesday, April 16, 2014

  Actual Average (KLAF) Record (KLAF)
Temperature  
Mean Temperature 40 °F 52 °F  
Max Temperature 53 °F 63 °F 84 °F (1976)
Min Temperature 28 °F 41 °F 24 °F (1979)
Degree Days  
Heating Degree Days 25 13  
Month to date heating degree days 253  
Since 1 July heating degree days 5338  
Cooling Degree Days 0 0  
Month to date cooling degree days 0  
Year to date cooling degree days 1  
Moisture  
Dew Point 24 °F    
Average Humidity 56    
Maximum Humidity 78    
Minimum Humidity 32    
Precipitation  
Precipitation 0.00 in 0.13 in 1.25 in (1982)
Month to date precipitation 1.76  
Year to date precipitation 8.05  
Sea Level Pressure  
Sea Level Pressure 30.22 in    
Wind  
Wind Speed 9 mph (SE)    
Max Wind Speed 18 mph    
Max Gust Speed 26 mph    
Visibility 10 miles    
Events      
T = Trace of Precipitation, MM = Missing Value Source: NWS Daily Summary

Daily Weather History Graph

Daily Weather History Graph

Search for Another Location

Airport or City:

Trip Planner

Search our weather history database for the weather conditions in past years. The results will help you decide how hot, cold, wet, or windy it might be!

Date:

Astronomy

Apr. 16, 2014 Rise Set
Actual Time 6:10 AM CDT 7:30 PM CDT
Civil Twilight 5:42 AM CDT 7:58 PM CDT
Nautical Twilight 5:08 AM CDT 8:32 PM CDT
Astronomical Twilight 4:33 AM CDT 9:08 PM CDT
Moon 9:13 PM CDT (4/16) 6:57 AM CDT (4/16)
Length of Visible Light 14h 15m
Length of Day
13h 19m
Full, 98% of the Moon is Illuminated
Apr 16
Full
Apr 22
Last Quarter
Apr 29
New
May 6
First Quarter
May 14
Full

Hourly Weather History & Observations

Time (CDT) Temp. Windchill Dew Point Humidity Pressure Visibility Wind Dir Wind Speed Gust Speed Precip Events Conditions
12:15 AM 29.8 °F 24.9 °F 21.9 °F 72% 30.21 in 10.0 mi SE 4.6 mph - N/A   Clear
12:35 AM 30.0 °F 24.1 °F 22.1 °F 72% 30.21 in 10.0 mi SE 5.8 mph - N/A   Clear
12:55 AM 29.3 °F 24.3 °F 22.1 °F 75% 30.22 in 10.0 mi SE 4.6 mph - N/A   Clear
1:15 AM 29.1 °F 23.0 °F 22.1 °F 75% 30.23 in 10.0 mi SE 5.8 mph - N/A   Clear
1:35 AM 29.7 °F 23.7 °F 22.1 °F 73% 30.23 in 10.0 mi SE 5.8 mph - N/A   Clear
1:55 AM 29.1 °F 22.1 °F 21.9 °F 74% 30.23 in 10.0 mi SE 6.9 mph - N/A   Clear
2:15 AM 29.1 °F 23.0 °F 21.7 °F 74% 30.23 in 10.0 mi SE 5.8 mph - N/A   Clear
2:35 AM 29.3 °F 23.2 °F 21.7 °F 73% 30.24 in 10.0 mi SE 5.8 mph - N/A   Clear
2:55 AM 28.9 °F 23.9 °F 21.9 °F 75% 30.25 in 10.0 mi SE 4.6 mph - N/A   Clear
3:15 AM 28.8 °F 22.6 °F 22.1 °F 76% 30.25 in 10.0 mi SE 5.8 mph - N/A   Clear
3:35 AM 28.4 °F 22.2 °F 22.3 °F 78% 30.25 in 10.0 mi SE 5.8 mph - N/A   Clear
3:55 AM 28.8 °F 21.7 °F 22.3 °F 77% 30.25 in 10.0 mi SE 6.9 mph - N/A   Clear
4:15 AM 28.4 °F 21.2 °F 22.1 °F 77% 30.25 in 10.0 mi SE 6.9 mph - N/A   Clear
4:35 AM 28.4 °F 22.2 °F 22.1 °F 77% 30.26 in 10.0 mi SE 5.8 mph - N/A   Clear
4:55 AM 28.0 °F 21.7 °F 22.1 °F 78% 30.26 in 10.0 mi SE 5.8 mph - N/A   Clear
5:15 AM 28.4 °F 23.3 °F 22.1 °F 77% 30.27 in 10.0 mi SE 4.6 mph - N/A   Clear
5:35 AM 28.2 °F 22.0 °F 22.1 °F 78% 30.27 in 10.0 mi SE 5.8 mph - N/A   Clear
5:55 AM 28.0 °F 20.8 °F 22.1 °F 78% 30.27 in 10.0 mi SE 6.9 mph - N/A   Clear
6:15 AM 28.0 °F 21.7 °F 21.7 °F 77% 30.28 in 10.0 mi SSE 5.8 mph - N/A   Clear
6:35 AM 28.4 °F 21.2 °F 21.9 °F 77% 30.28 in 10.0 mi SE 6.9 mph - N/A   Clear
6:55 AM 29.3 °F 22.3 °F 22.5 °F 76% 30.29 in 10.0 mi SE 6.9 mph - N/A   Clear
7:15 AM 30.2 °F 23.4 °F 23.2 °F 75% 30.30 in 10.0 mi SE 6.9 mph - N/A   Clear
7:35 AM 31.1 °F 23.1 °F 24.4 °F 76% 30.30 in 10.0 mi SE 9.2 mph - N/A   Clear
7:55 AM 32.0 °F 23.0 °F 24.1 °F 73% 30.30 in 10.0 mi SSE 11.5 mph - N/A   Clear
8:15 AM 33.1 °F 23.9 °F 24.3 °F 70% 30.31 in 10.0 mi SSE 12.7 mph 17.3 mph N/A   Clear
8:35 AM 34.7 °F 25.9 °F 23.2 °F 63% 30.31 in 10.0 mi SSE 12.7 mph 18.4 mph N/A   Clear
8:55 AM 35.6 °F 28.0 °F 24.1 °F 63% 30.31 in 10.0 mi SSE 10.4 mph - N/A   Clear
9:15 AM 37.4 °F 29.3 °F 25.0 °F 61% 30.31 in 10.0 mi SSE 12.7 mph 16.1 mph N/A   Clear
9:35 AM 38.1 °F 30.2 °F 24.6 °F 58% 30.31 in 10.0 mi SE 12.7 mph - N/A   Clear
9:55 AM 39.6 °F 31.3 °F 25.2 °F 56% 30.31 in 10.0 mi SSE 15.0 mph 18.4 mph N/A   Clear
10:15 AM 40.6 °F 32.7 °F 25.2 °F 54% 30.31 in 10.0 mi South 15.0 mph - N/A   Clear
10:35 AM 41.5 °F 34.6 °F 25.5 °F 53% 30.31 in 10.0 mi SSE 12.7 mph - N/A   Clear
10:55 AM 42.6 °F 34.9 °F 25.5 °F 51% 30.31 in 10.0 mi SE 16.1 mph 19.6 mph N/A   Clear
11:15 AM 43.0 °F 36.8 °F 24.3 °F 48% 30.30 in 10.0 mi SSE 11.5 mph - N/A   Clear
11:35 AM 44.4 °F 38.2 °F 26.1 °F 49% 30.29 in 10.0 mi SSE 12.7 mph 20.7 mph N/A   Clear
11:55 AM 45.1 °F 39.5 °F 26.8 °F 49% 30.28 in 10.0 mi SSE 11.5 mph 20.7 mph N/A   Clear
12:15 PM 46.0 °F 38.8 °F 26.6 °F 47% 30.28 in 10.0 mi South 18.4 mph - N/A   Clear
12:35 PM 46.8 °F - 26.1 °F 44% 30.27 in 10.0 mi SE 16.1 mph 19.6 mph N/A   Clear
12:55 PM 47.3 °F - 26.2 °F 44% 30.26 in 10.0 mi SSE 10.4 mph 24.2 mph N/A   Clear
1:15 PM 48.2 °F - 27.0 °F 44% 30.25 in 10.0 mi ESE 15.0 mph - N/A   Clear
1:35 PM 49.3 °F - 27.7 °F 43% 30.24 in 10.0 mi SSE 12.7 mph 20.7 mph N/A   Clear
1:55 PM 49.8 °F - 26.4 °F 40% 30.23 in 10.0 mi SSE 13.8 mph 20.7 mph N/A   Clear
2:15 PM 50.0 °F - 25.9 °F 39% 30.22 in 10.0 mi SSE 16.1 mph 24.2 mph N/A   Clear
2:35 PM 50.4 °F - 24.8 °F 37% 30.21 in 10.0 mi SSE 16.1 mph - N/A   Clear
2:55 PM 51.3 °F - 25.7 °F 37% 30.20 in 10.0 mi SSE 16.1 mph 21.9 mph N/A   Clear
3:15 PM 52.5 °F - 26.6 °F 37% 30.19 in 10.0 mi SSE 15.0 mph 20.7 mph N/A   Clear
3:35 PM 52.3 °F - 25.0 °F 35% 30.18 in 10.0 mi SSE 13.8 mph 20.7 mph N/A   Clear
3:55 PM 52.0 °F - 24.4 °F 34% 30.17 in 10.0 mi SSE 17.3 mph - N/A   Clear
4:15 PM 52.3 °F - 25.0 °F 35% 30.16 in 10.0 mi SSE 18.4 mph 23.0 mph N/A   Clear
4:35 PM 52.7 °F - 25.2 °F 34% 30.15 in 10.0 mi SSE 15.0 mph 21.9 mph N/A   Clear
4:55 PM 52.5 °F - 24.4 °F 34% 30.14 in 10.0 mi SE 13.8 mph 23.0 mph N/A   Clear
5:15 PM 52.7 °F - 24.8 °F 34% 30.14 in 10.0 mi SSE 13.8 mph 26.5 mph N/A   Clear
5:35 PM 52.5 °F - 24.1 °F 33% 30.13 in 10.0 mi SSE 15.0 mph - N/A   Clear
5:55 PM 52.0 °F - 23.9 °F 34% 30.13 in 10.0 mi SSE 16.1 mph 19.6 mph N/A   Clear
6:15 PM 51.4 °F - 22.6 °F 32% 30.13 in 10.0 mi SSE 15.0 mph - N/A   Clear
6:35 PM 50.9 °F - 23.7 °F 35% 30.13 in 10.0 mi SSE 11.5 mph - N/A   Clear
6:55 PM 50.0 °F - 23.9 °F 36% 30.13 in 10.0 mi SSE 10.4 mph - N/A   Clear
7:15 PM 48.4 °F - 25.0 °F 40% 30.13 in 10.0 mi SSE 12.7 mph - N/A   Clear
7:35 PM 45.9 °F 41.2 °F 26.8 °F 47% 30.14 in 10.0 mi SSE 9.2 mph - N/A   Clear
7:55 PM 45.5 °F 40.3 °F 26.1 °F 47% 30.14 in 10.0 mi SE 10.4 mph - N/A   Clear
8:15 PM 44.1 °F 39.0 °F 25.9 °F 49% 30.15 in 10.0 mi SE 9.2 mph - N/A   Clear
8:35 PM 43.7 °F 38.6 °F 25.7 °F 49% 30.15 in 10.0 mi SE 9.2 mph - N/A   Clear
8:55 PM 43.9 °F 38.8 °F 25.5 °F 48% 30.15 in 10.0 mi SE 9.2 mph - N/A   Clear
9:15 PM 43.0 °F 36.8 °F 26.4 °F 52% 30.15 in 10.0 mi SE 11.5 mph - N/A   Clear
9:35 PM 43.2 °F 37.0 °F 26.2 °F 51% 30.15 in 10.0 mi ESE 11.5 mph - N/A   Clear
9:55 PM 42.6 °F 36.8 °F 26.4 °F 53% 30.15 in 10.0 mi SE 10.4 mph - N/A   Clear
10:15 PM 41.9 °F 36.3 °F 26.8 °F 55% 30.15 in 10.0 mi SE 9.2 mph - N/A   Clear
10:35 PM 41.5 °F 35.4 °F 26.6 °F 55% 30.14 in 10.0 mi SE 10.4 mph - N/A   Clear
10:55 PM 41.9 °F 35.4 °F 26.4 °F 54% 30.14 in 10.0 mi SE 11.5 mph - N/A   Clear
11:15 PM 41.9 °F 35.4 °F 26.4 °F 54% 30.14 in 10.0 mi SE 11.5 mph - N/A   Clear
11:35 PM 40.6 °F 36.0 °F 26.6 °F 57% 30.16 in 10.0 mi SE 6.9 mph - N/A   Clear
11:55 PM 39.7 °F 35.6 °F 26.4 °F 59% 30.16 in 10.0 mi SSE 5.8 mph - N/A   Clear